Time;durP1;ratioP1;P1;durP2;ratioP2;P2;SDS_P1;SDS_P2;PMS_P1;PMS_P2;Temp;Humidity;BMP_temperature;BMP_pressure;BME280_temperature;BME280_humidity;BME280_pressure;Samples;Min_cycle;Max_cycle;Signal;HPM_P1;HPM_P2
2021/11/04 00:00:21;;;;;;;41.77;25.40;;;7.50;99.90;;;;;;5075602;28;20183;-84
2021/11/04 00:02:47;;;;;;;43.93;26.33;;;7.40;99.90;;;;;;5074976;28;20178;-85
2021/11/04 00:05:13;;;;;;;42.80;26.53;;;7.40;99.90;;;;;;5074894;28;20252;-85
2021/11/04 00:07:40;;;;;;;45.47;28.20;;;7.40;99.90;;;;;;5058586;28;20208;-84
2021/11/04 00:10:07;;;;;;;46.47;28.47;;;7.40;99.90;;;;;;5058742;28;20648;-85
2021/11/04 00:12:34;;;;;;;46.20;27.90;;;7.30;99.90;;;;;;5074149;28;20172;-84
2021/11/04 00:15:00;;;;;;;45.87;28.50;;;7.20;99.90;;;;;;5075478;28;20179;-84
2021/11/04 00:17:26;;;;;;;46.53;27.80;;;7.20;99.90;;;;;;5059150;28;20171;-84
2021/11/04 00:19:52;;;;;;;47.80;28.20;;;7.20;99.90;;;;;;5075055;28;20232;-85
2021/11/04 00:22:18;;;;;;;42.47;26.80;;;7.20;99.90;;;;;;5076222;28;20183;-84
2021/11/04 00:24:44;;;;;;;43.73;26.83;;;7.10;99.90;;;;;;5076988;28;20178;-82
2021/11/04 00:27:10;;;;;;;42.70;26.37;;;7.00;99.90;;;;;;5075788;28;20206;-84
2021/11/04 00:29:36;;;;;;;41.23;25.63;;;6.90;99.90;;;;;;5078466;28;20179;-85
2021/11/04 00:32:03;;;;;;;39.27;24.17;;;6.90;99.90;;;;;;5059402;28;20174;-85
2021/11/04 00:34:28;;;;;;;38.20;24.33;;;6.90;99.90;;;;;;5075334;28;20283;-83
2021/11/04 00:36:55;;;;;;;38.07;23.10;;;6.80;99.90;;;;;;5061865;28;20667;-85
2021/11/04 00:39:21;;;;;;;36.73;23.20;;;6.80;99.90;;;;;;5075171;28;20713;-85
2021/11/04 00:41:47;;;;;;;35.90;22.60;;;6.80;99.90;;;;;;5077682;28;20201;-85
2021/11/04 00:44:13;;;;;;;36.97;23.30;;;7.00;99.90;;;;;;5074690;28;20237;-85
2021/11/04 00:46:39;;;;;;;38.40;23.03;;;7.00;99.90;;;;;;5074824;28;20203;-84
2021/11/04 00:49:06;;;;;;;33.27;21.97;;;7.00;99.90;;;;;;5075826;28;20194;-85
2021/11/04 00:51:32;;;;;;;36.03;22.27;;;6.80;99.90;;;;;;5079423;28;20275;-84
2021/11/04 00:53:58;;;;;;;32.53;20.63;;;6.70;99.90;;;;;;5079122;28;20265;-84
2021/11/04 00:56:24;;;;;;;31.23;19.97;;;6.50;99.90;;;;;;5096955;28;20279;-84
2021/11/04 00:58:49;;;;;;;30.77;22.90;;;6.50;99.90;;;;;;5064121;28;20565;-84
2021/11/04 01:01:17;;;;;;;27.93;19.10;;;6.40;99.90;;;;;;5093110;28;20661;-83
2021/11/04 01:03:43;;;;;;;28.57;20.30;;;6.40;99.90;;;;;;5077543;28;20171;-83
2021/11/04 01:06:09;;;;;;;30.70;20.00;;;6.40;99.90;;;;;;5094708;28;20546;-83
2021/11/04 01:08:34;;;;;;;31.17;20.10;;;6.50;99.90;;;;;;5076140;28;20212;-83
2021/11/04 01:11:00;;;;;;;30.03;20.63;;;6.60;99.90;;;;;;5060877;28;20265;-84
2021/11/04 01:13:26;;;;;;;31.13;20.83;;;6.70;99.90;;;;;;5093661;28;20181;-83
2021/11/04 01:15:51;;;;;;;31.27;20.77;;;6.70;99.90;;;;;;5095599;28;20181;-84
2021/11/04 01:18:17;;;;;;;29.70;19.37;;;6.70;99.90;;;;;;5061163;28;20175;-84
2021/11/04 01:20:43;;;;;;;26.60;18.37;;;6.60;99.90;;;;;;5062265;28;20177;-83
2021/11/04 01:23:09;;;;;;;27.20;18.27;;;6.60;99.90;;;;;;5078853;28;20198;-83
2021/11/04 01:25:35;;;;;;;24.93;17.63;;;6.50;99.90;;;;;;5077327;28;20190;-84
2021/11/04 01:28:03;;;;;;;25.53;16.67;;;6.50;99.90;;;;;;5077971;28;20215;-84
2021/11/04 01:30:29;;;;;;;26.87;17.47;;;6.40;99.90;;;;;;5061391;28;20266;-84
2021/11/04 01:32:55;;;;;;;26.17;17.40;;;6.40;99.90;;;;;;5060755;28;20589;-84
2021/11/04 01:35:20;;;;;;;25.47;16.83;;;6.40;99.90;;;;;;5061007;28;20191;-84
2021/11/04 01:37:46;;;;;;;26.23;17.27;;;6.30;99.90;;;;;;5060357;28;20190;-84
2021/11/04 01:40:12;;;;;;;25.43;17.10;;;6.20;99.90;;;;;;5062646;28;20201;-85
2021/11/04 01:42:38;;;;;;;25.43;17.27;;;6.20;99.90;;;;;;5061416;28;20270;-85
2021/11/04 01:45:04;;;;;;;26.60;18.10;;;6.30;99.90;;;;;;5079269;28;20705;-84
2021/11/04 01:47:29;;;;;;;29.57;18.67;;;6.50;99.90;;;;;;5061808;28;20702;-84
2021/11/04 01:49:57;;;;;;;28.47;18.60;;;6.60;99.90;;;;;;5062981;28;20181;-85
2021/11/04 01:52:22;;;;;;;28.70;18.67;;;6.50;99.90;;;;;;5072962;28;20724;-84
2021/11/04 01:54:48;;;;;;;31.50;20.30;;;6.60;99.90;;;;;;5076771;28;20268;-85
2021/11/04 01:57:14;;;;;;;29.23;20.23;;;6.60;99.90;;;;;;5077467;28;20217;-84
2021/11/04 01:59:39;;;;;;;31.80;20.50;;;6.60;99.90;;;;;;5077183;28;20238;-84
2021/11/04 02:02:15;;;;;;;28.47;19.40;;;6.60;99.90;;;;;;5077917;28;20324;-84
2021/11/04 02:04:44;;;;;;;28.43;18.67;;;6.50;99.90;;;;;;5077768;28;20189;-85
2021/11/04 02:07:22;;;;;;;27.03;18.20;;;6.40;99.90;;;;;;5061013;28;20209;-84
2021/11/04 02:10:07;;;;;;;30.33;19.87;;;6.20;99.90;;;;;;5057874;28;20180;-84
2021/11/04 02:12:45;;;;;;;34.37;21.10;;;6.20;99.90;;;;;;5076675;28;20591;-84
2021/11/04 02:15:11;;;;;;;35.47;21.33;;;6.30;99.90;;;;;;5054657;28;20184;-84
2021/11/04 02:17:45;;;;;;;34.17;21.57;;;6.40;99.90;;;;;;5078136;28;21720;-84
2021/11/04 02:20:18;;;;;;;36.10;21.40;;;6.40;99.90;;;;;;5054314;28;20599;-84
2021/11/04 02:23:09;;;;;;;33.73;20.57;;;6.50;99.90;;;;;;5074698;28;20285;-84
2021/11/04 02:25:37;;;;;;;35.97;21.83;;;6.50;99.90;;;;;;5072125;28;20199;-84
2021/11/04 02:28:12;;;;;;;35.37;21.97;;;6.50;99.90;;;;;;5062030;28;20202;-83
2021/11/04 02:30:39;;;;;;;34.73;21.23;;;6.40;99.90;;;;;;5060330;28;20259;-85
2021/11/04 02:33:06;;;;;;;30.83;20.13;;;6.30;99.90;;;;;;5061710;28;20190;-83
2021/11/04 02:35:32;;;;;;;30.73;20.10;;;6.30;99.90;;;;;;5059058;28;20667;-84
2021/11/04 02:37:58;;;;;;;32.70;21.07;;;6.30;99.90;;;;;;5055712;28;20227;-84
2021/11/04 02:40:25;;;;;;;31.63;19.77;;;6.30;99.90;;;;;;5073926;28;20187;-84
2021/11/04 02:42:51;;;;;;;34.37;21.03;;;6.30;99.90;;;;;;5078787;28;20203;-85
2021/11/04 02:45:24;;;;;;;34.97;21.00;;;6.30;99.90;;;;;;5077131;28;20200;-85
2021/11/04 02:47:50;;;;;;;37.53;22.53;;;6.30;99.90;;;;;;5077702;28;20672;-85
2021/11/04 02:50:18;;;;;;;38.03;23.17;;;6.30;99.90;;;;;;5076090;28;20589;-84
2021/11/04 02:52:44;;;;;;;37.73;23.80;;;6.30;99.90;;;;;;5076027;28;20197;-85
2021/11/04 02:55:10;;;;;;;36.70;22.10;;;6.30;99.90;;;;;;5062372;28;20240;-85
2021/11/04 02:57:46;;;;;;;36.00;21.80;;;6.30;99.90;;;;;;5075891;28;20185;-84
2021/11/04 03:00:16;;;;;;;41.63;23.77;;;6.20;99.90;;;;;;5074995;28;20641;-84
2021/11/04 03:02:42;;;;;;;37.20;23.07;;;6.20;99.90;;;;;;5075339;28;20182;-84
2021/11/04 03:05:08;;;;;;;36.53;23.03;;;6.20;99.90;;;;;;5076954;28;20228;-84
2021/11/04 03:07:33;;;;;;;37.57;23.50;;;6.20;99.90;;;;;;5059673;28;20689;-84
2021/11/04 03:09:59;;;;;;;33.00;19.03;;;6.20;99.90;;;;;;5059317;28;20193;-85
2021/11/04 03:12:25;;;;;;;31.63;18.90;;;6.10;99.90;;;;;;5056440;28;20182;-85
2021/11/04 03:14:52;;;;;;;33.07;19.37;;;6.00;99.90;;;;;;5059928;28;20163;-85
2021/11/04 03:17:19;;;;;;;33.80;20.20;;;6.00;99.90;;;;;;5057961;28;20190;-85
2021/11/04 03:19:46;;;;;;;33.30;20.20;;;6.00;99.90;;;;;;5059251;28;20175;-84
2021/11/04 03:22:12;;;;;;;33.03;19.83;;;6.00;99.90;;;;;;5059630;28;20202;-84
2021/11/04 03:24:38;;;;;;;33.90;20.53;;;5.90;99.90;;;;;;5059686;28;20274;-85
2021/11/04 03:27:06;;;;;;;30.33;19.30;;;5.90;99.90;;;;;;5077449;28;20290;-85
2021/11/04 03:29:37;;;;;;;30.30;18.37;;;5.90;99.90;;;;;;5077974;28;20391;-84
2021/11/04 03:32:10;;;;;;;30.70;18.70;;;5.90;99.90;;;;;;5058376;28;20192;-84
2021/11/04 03:34:37;;;;;;;31.63;19.17;;;5.90;99.90;;;;;;5063390;28;20213;-84
2021/11/04 03:37:06;;;;;;;31.67;19.63;;;5.90;99.90;;;;;;5058535;28;20176;-84
2021/11/04 03:39:32;;;;;;;34.13;20.50;;;6.00;99.90;;;;;;5074906;28;20301;-84
2021/11/04 03:42:00;;;;;;;32.30;19.53;;;6.10;99.90;;;;;;5060029;28;20187;-84
2021/11/04 03:44:27;;;;;;;34.93;20.67;;;6.10;99.90;;;;;;5075024;28;20241;-84
2021/11/04 03:46:54;;;;;;;31.70;20.13;;;6.10;99.90;;;;;;5058571;28;20630;-84
2021/11/04 03:49:21;;;;;;;33.40;20.43;;;6.20;99.90;;;;;;5074761;28;20178;-84
2021/11/04 03:51:50;;;;;;;34.83;21.17;;;6.10;99.90;;;;;;5076548;28;20181;-85
2021/11/04 03:54:22;;;;;;;34.57;20.13;;;6.10;99.90;;;;;;5081041;28;20622;-85
2021/11/04 03:56:52;;;;;;;34.63;20.77;;;6.00;99.90;;;;;;5074305;28;20191;-85
2021/11/04 03:59:19;;;;;;;31.40;20.00;;;6.00;99.90;;;;;;5062704;28;20207;-85
2021/11/04 04:01:45;;;;;;;31.40;19.10;;;5.90;99.90;;;;;;5092033;28;20689;-85
2021/11/04 04:04:11;;;;;;;34.37;19.73;;;5.90;99.90;;;;;;5060535;28;20184;-85
2021/11/04 04:06:37;;;;;;;31.80;19.67;;;5.80;99.90;;;;;;5058749;28;20175;-85
2021/11/04 04:09:04;;;;;;;33.57;20.77;;;5.80;99.90;;;;;;5076064;28;20189;-85
2021/11/04 04:11:31;;;;;;;28.53;18.17;;;5.90;99.90;;;;;;5075449;28;20634;-85
2021/11/04 04:13:57;;;;;;;29.30;18.83;;;5.90;99.90;;;;;;5075172;28;20189;-84
2021/11/04 04:16:23;;;;;;;29.97;18.23;;;5.90;99.90;;;;;;5075272;28;20558;-85
2021/11/04 04:18:50;;;;;;;28.67;18.87;;;5.90;99.90;;;;;;5078141;28;20298;-85
2021/11/04 04:21:16;;;;;;;33.97;20.37;;;5.80;99.90;;;;;;5059109;28;20192;-85
2021/11/04 04:23:42;;;;;;;32.90;21.37;;;5.90;99.90;;;;;;5058661;28;20178;-84
2021/11/04 04:26:08;;;;;;;34.27;21.03;;;6.00;99.90;;;;;;5078160;28;20546;-83
2021/11/04 04:28:35;;;;;;;36.67;22.23;;;6.10;99.90;;;;;;5058002;28;20207;-85
2021/11/04 04:31:01;;;;;;;39.30;23.03;;;6.20;99.90;;;;;;5075212;28;20191;-85
2021/11/04 04:33:26;;;;;;;43.27;24.47;;;6.30;99.90;;;;;;5076464;28;20262;-85
2021/11/04 04:35:53;;;;;;;42.83;24.27;;;6.30;99.90;;;;;;5074289;28;20199;-85
2021/11/04 04:38:19;;;;;;;42.77;24.37;;;6.50;99.90;;;;;;5057905;28;20271;-85
2021/11/04 04:40:45;;;;;;;49.27;27.40;;;6.50;99.90;;;;;;5075129;28;20653;-85
2021/11/04 04:43:11;;;;;;;47.63;26.53;;;6.60;99.90;;;;;;5062452;28;20204;-85
2021/11/04 04:45:36;;;;;;;51.67;29.73;;;6.70;99.90;;;;;;5075952;28;20561;-85
2021/11/04 04:48:03;;;;;;;56.17;29.77;;;6.80;99.90;;;;;;5091577;28;20221;-86
2021/11/04 04:50:28;;;;;;;60.10;33.40;;;6.80;99.90;;;;;;5059327;28;20172;-85
2021/11/04 04:52:54;;;;;;;62.07;35.37;;;6.90;99.90;;;;;;5075537;28;20236;-85
2021/11/04 04:55:20;;;;;;;70.63;34.97;;;7.00;99.90;;;;;;5092446;28;20182;-85
2021/11/04 04:57:46;;;;;;;60.47;34.83;;;7.20;99.90;;;;;;5059382;28;20185;-85
2021/11/04 05:00:13;;;;;;;63.90;34.07;;;7.20;99.90;;;;;;5060864;28;20213;-85
2021/11/04 05:02:44;;;;;;;61.77;36.00;;;7.20;99.90;;;;;;5085519;28;20180;-85
2021/11/04 05:05:11;;;;;;;58.80;32.97;;;7.20;99.90;;;;;;5074135;28;20232;-85
2021/11/04 05:07:37;;;;;;;59.20;32.27;;;7.30;99.90;;;;;;5074831;28;20199;-85
2021/11/04 05:10:07;;;;;;;56.30;31.33;;;7.30;99.90;;;;;;5057296;28;20209;-85
2021/11/04 05:12:33;;;;;;;52.90;29.90;;;7.30;99.90;;;;;;5073112;28;20186;-86
2021/11/04 05:14:59;;;;;;;54.63;30.40;;;7.40;99.90;;;;;;5059871;28;20984;-84
2021/11/04 05:17:25;;;;;;;55.23;30.83;;;7.40;99.90;;;;;;5074623;28;20184;-84
2021/11/04 05:19:51;;;;;;;54.30;30.30;;;7.30;99.90;;;;;;5058406;28;20186;-85
2021/11/04 05:22:17;;;;;;;53.07;31.33;;;7.30;99.90;;;;;;5092772;28;20187;-85
2021/11/04 05:24:43;;;;;;;53.23;30.77;;;7.40;99.90;;;;;;5075571;28;20203;-85
2021/11/04 05:27:09;;;;;;;54.40;30.70;;;7.40;99.90;;;;;;5074834;28;20195;-84
2021/11/04 05:29:35;;;;;;;52.93;31.10;;;7.40;99.90;;;;;;5056345;28;20186;-85
2021/11/04 05:32:06;;;;;;;54.40;31.67;;;7.40;99.90;;;;;;5082425;28;20195;-84
2021/11/04 05:34:41;;;;;;;53.30;30.90;;;7.50;99.90;;;;;;5059982;28;20226;-85
2021/11/04 05:37:10;;;;;;;57.60;33.43;;;7.60;99.90;;;;;;5060407;28;20186;-86
2021/11/04 05:39:37;;;;;;;59.67;34.53;;;7.60;99.90;;;;;;5076611;28;20230;-85
2021/11/04 05:42:04;;;;;;;58.53;31.87;;;7.60;99.90;;;;;;5064125;28;20182;-86
2021/11/04 05:44:30;;;;;;;57.73;32.77;;;7.60;99.90;;;;;;5095418;28;20175;-85
2021/11/04 05:46:56;;;;;;;55.07;32.90;;;7.60;99.90;;;;;;5077434;28;20198;-86
2021/11/04 05:49:22;;;;;;;57.23;33.13;;;7.60;99.90;;;;;;5061912;28;20191;-86
2021/11/04 05:51:48;;;;;;;62.50;33.20;;;7.60;99.90;;;;;;5062099;28;20191;-86
2021/11/04 05:54:13;;;;;;;61.17;33.17;;;7.60;99.90;;;;;;5080742;28;20257;-85
2021/11/04 05:56:39;;;;;;;60.33;33.53;;;7.60;99.90;;;;;;5078823;28;20183;-85
2021/11/04 05:59:05;;;;;;;66.33;33.37;;;7.60;99.90;;;;;;5061597;28;20183;-85
2021/11/04 06:01:31;;;;;;;61.93;34.00;;;7.70;99.90;;;;;;5076738;28;20205;-84
2021/11/04 06:03:56;;;;;;;59.37;31.83;;;7.70;99.90;;;;;;5061230;28;20651;-84
2021/11/04 06:06:22;;;;;;;65.80;33.00;;;7.70;99.90;;;;;;5055069;28;20274;-82
2021/11/04 06:08:48;;;;;;;61.33;33.43;;;7.70;99.90;;;;;;5077996;28;20216;-84
2021/11/04 06:11:14;;;;;;;66.47;31.23;;;7.70;99.90;;;;;;5057430;28;20179;-84
2021/11/04 06:13:40;;;;;;;63.90;30.97;;;7.70;99.90;;;;;;5073652;28;20179;-84
2021/11/04 06:16:12;;;;;;;62.13;30.83;;;7.70;99.90;;;;;;5094263;28;20275;-84
2021/11/04 06:18:39;;;;;;;87.60;29.20;;;7.80;99.90;;;;;;5079851;28;20660;-84
2021/11/04 06:21:05;;;;;;;98.47;30.90;;;7.80;99.90;;;;;;5095489;28;20194;-84
2021/11/04 06:23:32;;;;;;;89.77;30.90;;;7.80;99.90;;;;;;5095572;28;20171;-83
2021/11/04 06:25:58;;;;;;;112.60;30.60;;;7.80;99.90;;;;;;5095146;28;20717;-84
2021/11/04 06:28:23;;;;;;;66.40;29.97;;;7.80;99.90;;;;;;5060713;28;20203;-84
2021/11/04 06:30:49;;;;;;;88.57;31.30;;;7.90;99.90;;;;;;5077003;28;20272;-84
2021/11/04 06:33:15;;;;;;;75.13;32.03;;;7.90;99.90;;;;;;5076523;28;20195;-84
2021/11/04 06:35:41;;;;;;;92.83;31.60;;;7.80;99.90;;;;;;5077033;28;20213;-85
2021/11/04 06:38:07;;;;;;;73.70;30.83;;;7.90;99.90;;;;;;5075255;28;20222;-84
2021/11/04 06:40:32;;;;;;;65.77;32.00;;;7.80;99.90;;;;;;5062402;28;20560;-84
2021/11/04 06:42:58;;;;;;;71.57;31.60;;;7.80;99.90;;;;;;5074970;28;20199;-85
2021/11/04 06:45:24;;;;;;;70.93;30.50;;;7.80;99.90;;;;;;5094754;28;20180;-84
2021/11/04 06:47:55;;;;;;;72.87;30.40;;;7.80;99.90;;;;;;5074809;28;20241;-84
2021/11/04 06:50:25;;;;;;;70.27;29.67;;;7.80;99.90;;;;;;5058774;28;20194;-84
2021/11/04 06:52:59;;;;;;;91.73;29.33;;;7.70;99.90;;;;;;5075374;28;20216;-84
2021/11/04 06:55:27;;;;;;;64.23;28.63;;;7.70;99.90;;;;;;5060447;28;20208;-85
2021/11/04 06:58:00;;;;;;;107.27;29.17;;;7.70;99.90;;;;;;5075217;28;20182;-83
2021/11/04 07:00:31;;;;;;;71.00;28.83;;;7.70;99.90;;;;;;5061314;28;20270;-84
2021/11/04 07:03:09;;;;;;;74.07;27.67;;;7.60;99.90;;;;;;5053410;28;20262;-84
2021/11/04 07:05:36;;;;;;;69.17;28.23;;;7.60;99.90;;;;;;5078597;28;20558;-84
2021/11/04 07:08:03;;;;;;;86.23;27.67;;;7.80;99.90;;;;;;5058857;28;20264;-84
2021/11/04 07:10:30;;;;;;;64.57;28.53;;;7.80;99.90;;;;;;5092914;28;20214;-84
2021/11/04 07:12:56;;;;;;;56.27;27.83;;;7.90;99.90;;;;;;5095791;28;20186;-84
2021/11/04 07:15:22;;;;;;;68.93;29.47;;;7.90;99.90;;;;;;5076889;28;20185;-84
2021/11/04 07:17:49;;;;;;;62.93;28.93;;;7.90;99.90;;;;;;5061552;28;20182;-84
2021/11/04 07:20:17;;;;;;;100.67;29.73;;;8.00;99.90;;;;;;5075672;28;20179;-84
2021/11/04 07:22:51;;;;;;;62.70;27.50;;;8.00;99.90;;;;;;5058619;28;20183;-85
2021/11/04 07:25:20;;;;;;;61.63;29.33;;;8.00;99.90;;;;;;5075541;28;20191;-84
2021/11/04 07:27:59;;;;;;;68.40;26.90;;;7.90;99.90;;;;;;5074783;28;20225;-85
2021/11/04 07:30:27;;;;;;;60.70;28.83;;;7.90;99.90;;;;;;5061411;28;20179;-85
2021/11/04 07:32:59;;;;;;;64.83;29.03;;;8.10;99.90;;;;;;5074559;28;20187;-84
2021/11/04 07:35:27;;;;;;;63.60;28.60;;;8.20;99.90;;;;;;5058848;28;20258;-85
2021/11/04 07:37:54;;;;;;;55.13;27.67;;;8.20;99.90;;;;;;5055709;28;20179;-84
2021/11/04 07:40:22;;;;;;;67.53;27.90;;;8.30;99.90;;;;;;5055347;28;20228;-84
2021/11/04 07:42:48;;;;;;;65.33;27.23;;;8.40;99.90;;;;;;5061273;28;20205;-84
2021/11/04 07:45:14;;;;;;;80.80;27.03;;;8.40;99.90;;;;;;5055953;28;20616;-84
2021/11/04 07:47:42;;;;;;;54.50;27.10;;;8.30;99.90;;;;;;5075506;28;20209;-84
2021/11/04 07:50:09;;;;;;;56.27;27.10;;;8.40;99.90;;;;;;5058106;28;20202;-84
2021/11/04 07:52:38;;;;;;;68.13;27.77;;;8.40;99.90;;;;;;5076185;28;20175;-85
2021/11/04 07:55:05;;;;;;;53.73;26.53;;;8.40;99.90;;;;;;5086027;28;20186;-86
2021/11/04 07:57:32;;;;;;;60.57;27.67;;;8.50;99.90;;;;;;5076271;28;20178;-84
2021/11/04 08:00:02;;;;;;;53.37;26.73;;;8.60;99.90;;;;;;5075372;28;20959;-84
2021/11/04 08:02:31;;;;;;;56.17;27.90;;;8.60;99.90;;;;;;5074732;28;20194;-85
2021/11/04 08:04:56;;;;;;;56.67;27.00;;;8.70;99.90;;;;;;5059504;28;20182;-85
2021/11/04 08:07:22;;;;;;;61.70;27.07;;;8.80;99.90;;;;;;5075762;28;20197;-85
2021/11/04 08:09:48;;;;;;;52.30;26.77;;;8.70;99.90;;;;;;5073815;28;20633;-85
2021/11/04 08:12:13;;;;;;;60.57;26.67;;;8.80;99.90;;;;;;5058830;28;20189;-84
2021/11/04 08:14:41;;;;;;;60.13;25.13;;;8.80;99.90;;;;;;5074493;28;20264;-85
2021/11/04 08:17:07;;;;;;;52.67;25.20;;;8.90;99.90;;;;;;5076064;28;20175;-85
2021/11/04 08:19:34;;;;;;;57.13;25.23;;;8.90;99.90;;;;;;5074880;28;20190;-85
2021/11/04 08:22:01;;;;;;;55.10;24.60;;;9.10;99.90;;;;;;5055383;28;20175;-85
2021/11/04 08:24:30;;;;;;;53.23;25.53;;;9.10;99.90;;;;;;5071316;28;20175;-85
2021/11/04 08:26:56;;;;;;;51.37;24.97;;;9.10;99.90;;;;;;5059147;28;20275;-84
2021/11/04 08:29:22;;;;;;;44.03;24.03;;;9.30;99.90;;;;;;5073219;28;20645;-84
2021/11/04 08:31:47;;;;;;;47.20;22.70;;;9.30;99.90;;;;;;5092761;28;20179;-85
2021/11/04 08:34:13;;;;;;;53.33;24.60;;;9.40;99.90;;;;;;5074468;28;20199;-85
2021/11/04 08:36:39;;;;;;;52.17;27.37;;;9.50;99.90;;;;;;5059135;28;20256;-86
2021/11/04 08:39:05;;;;;;;49.10;23.23;;;9.60;99.90;;;;;;5092937;28;20250;-86
2021/11/04 08:41:31;;;;;;;48.80;24.53;;;9.60;99.90;;;;;;5073571;28;20667;-86
2021/11/04 08:43:56;;;;;;;48.60;24.53;;;9.70;99.90;;;;;;5058477;28;20177;-86
2021/11/04 08:46:22;;;;;;;49.10;25.53;;;9.70;99.90;;;;;;5075162;28;20259;-86
2021/11/04 08:48:48;;;;;;;52.80;23.97;;;9.60;99.90;;;;;;5075437;28;20674;-86
2021/11/04 08:51:15;;;;;;;50.07;26.13;;;9.60;99.90;;;;;;5075348;28;20185;-86
2021/11/04 08:53:41;;;;;;;54.57;28.33;;;9.70;99.90;;;;;;5074463;28;20826;-86
2021/11/04 08:56:08;;;;;;;48.00;24.93;;;9.80;99.90;;;;;;5059681;28;20179;-86
2021/11/04 08:58:34;;;;;;;46.27;23.70;;;10.00;99.90;;;;;;5076768;28;20187;-87
2021/11/04 09:01:00;;;;;;;47.30;24.10;;;10.10;99.90;;;;;;5075496;28;20259;-87
2021/11/04 09:03:26;;;;;;;45.63;25.00;;;10.20;99.90;;;;;;5075817;28;20282;-86
2021/11/04 09:05:52;;;;;;;38.60;22.13;;;10.30;99.90;;;;;;5057929;28;20734;-84
2021/11/04 09:08:17;;;;;;;41.17;23.53;;;10.40;99.90;;;;;;5057197;28;20221;-86
2021/11/04 09:10:43;;;;;;;49.97;26.60;;;10.30;99.90;;;;;;5060414;28;20188;-86
2021/11/04 09:13:09;;;;;;;61.07;36.40;;;10.20;99.90;;;;;;5056008;28;20197;-86
2021/11/04 09:15:36;;;;;;;63.67;39.27;;;10.30;99.90;;;;;;5062273;28;20178;-86
2021/11/04 09:18:03;;;;;;;48.77;29.83;;;10.30;99.90;;;;;;5098060;28;20176;-86
2021/11/04 09:20:28;;;;;;;46.50;27.03;;;10.50;99.90;;;;;;5077188;28;20244;-86
2021/11/04 09:22:54;;;;;;;44.63;25.10;;;10.70;99.90;;;;;;5079500;28;20206;-86
2021/11/04 09:25:22;;;;;;;38.17;21.93;;;10.90;99.90;;;;;;5081833;28;20187;-86
2021/11/04 09:27:50;;;;;;;35.60;21.63;;;10.90;99.90;;;;;;5064589;28;20239;-86
2021/11/04 09:30:17;;;;;;;33.23;20.00;;;10.80;99.90;;;;;;5057385;28;20171;-84
2021/11/04 09:32:46;;;;;;;35.23;21.30;;;10.70;99.90;;;;;;5062019;28;20249;-86
2021/11/04 09:35:13;;;;;;;33.60;19.43;;;10.60;99.90;;;;;;5066270;28;20177;-86
2021/11/04 09:37:39;;;;;;;37.07;19.43;;;10.70;99.90;;;;;;5079814;28;20189;-86
2021/11/04 09:40:06;;;;;;;36.80;19.93;;;10.90;99.90;;;;;;5061643;28;20209;-86
2021/11/04 09:42:32;;;;;;;39.30;20.10;;;11.00;99.90;;;;;;5061544;28;20333;-86
2021/11/04 09:44:59;;;;;;;37.87;21.80;;;11.10;99.90;;;;;;5066665;28;20967;-86
2021/11/04 09:47:30;;;;;;;37.47;20.77;;;11.10;99.90;;;;;;5063588;28;20219;-87
2021/11/04 09:50:03;;;;;;;36.47;19.07;;;11.00;99.90;;;;;;5060842;28;20198;-87
2021/11/04 09:52:31;;;;;;;33.73;19.07;;;10.90;99.90;;;;;;5093520;28;20191;-87
2021/11/04 09:54:57;;;;;;;37.17;19.13;;;10.80;99.90;;;;;;5076296;28;20202;-87
2021/11/04 09:57:25;;;;;;;37.90;19.47;;;10.70;99.90;;;;;;5078903;28;20196;-86
2021/11/04 09:59:55;;;;;;;35.97;19.23;;;10.70;99.90;;;;;;5077571;28;20684;-85
2021/11/04 10:02:23;;;;;;;42.60;20.60;;;10.70;99.90;;;;;;5095147;28;20230;-85
2021/11/04 10:04:49;;;;;;;38.50;20.60;;;10.70;99.90;;;;;;5077959;28;20205;-85
2021/11/04 10:07:17;;;;;;;34.57;19.13;;;10.80;99.90;;;;;;5077759;28;20208;-85
2021/11/04 10:10:03;;;;;;;41.10;21.30;;;10.80;99.90;;;;;;5077985;28;20206;-85
2021/11/04 10:12:32;;;;;;;40.23;20.77;;;11.00;99.90;;;;;;5059254;28;20185;-86
2021/11/04 10:15:14;;;;;;;36.33;19.43;;;11.20;99.90;;;;;;5078043;28;20189;-85
2021/11/04 10:17:40;;;;;;;39.77;19.67;;;11.30;99.90;;;;;;5059252;28;20197;-87
2021/11/04 10:20:24;;;;;;;35.77;17.93;;;11.50;99.90;;;;;;5079342;28;20193;-85
2021/11/04 10:23:20;;;;;;;31.77;17.80;;;11.50;99.90;;;;;;5077757;28;21638;-87
2021/11/04 10:25:48;;;;;;;34.80;17.63;;;11.80;99.90;;;;;;5024191;28;20219;-86
2021/11/04 10:28:29;;;;;;;30.83;17.63;;;11.90;99.90;;;;;;5077286;28;20212;-87
2021/11/04 10:30:56;;;;;;;28.53;15.50;;;12.10;99.90;;;;;;5077635;28;20175;-86
2021/11/04 10:33:32;;;;;;;30.37;16.37;;;12.30;99.90;;;;;;5077375;28;20317;-86
2021/11/04 10:36:06;;;;;;;28.63;14.27;;;12.40;99.90;;;;;;5078940;28;20603;-86
2021/11/04 10:38:36;;;;;;;27.93;15.47;;;12.40;99.90;;;;;;5060890;28;20588;-86
2021/11/04 10:41:23;;;;;;;26.00;14.47;;;12.60;99.90;;;;;;5076405;28;20197;-87
2021/11/04 10:43:52;;;;;;;28.00;15.60;;;12.70;99.90;;;;;;5077096;28;20186;-86
2021/11/04 10:46:18;;;;;;;26.73;14.73;;;12.90;99.90;;;;;;5063244;28;20268;-86
2021/11/04 10:48:47;;;;;;;26.43;14.07;;;13.20;99.90;;;;;;5059667;28;20259;-86
2021/11/04 10:51:15;;;;;;;29.83;14.57;;;13.20;99.90;;;;;;5063042;28;20174;-87
2021/11/04 10:53:41;;;;;;;27.17;14.60;;;13.30;99.90;;;;;;5061856;28;20190;-87
2021/11/04 10:56:16;;;;;;;27.13;14.07;;;13.40;99.90;;;;;;5077169;28;20190;-85
2021/11/04 10:58:42;;;;;;;27.50;13.83;;;13.40;99.90;;;;;;5093483;28;20182;-85
2021/11/04 11:01:30;;;;;;;24.43;13.63;;;13.20;99.90;;;;;;5060726;28;20527;-85
2021/11/04 11:04:04;;;;;;;20.80;12.13;;;13.20;99.90;;;;;;5075931;28;20191;-86
2021/11/04 11:06:32;;;;;;;22.90;13.13;;;13.30;99.90;;;;;;5076262;28;20187;-86
2021/11/04 11:09:00;;;;;;;23.80;13.30;;;13.40;99.90;;;;;;5061417;28;20208;-85
2021/11/04 11:11:26;;;;;;;21.77;12.57;;;13.50;99.90;;;;;;5062333;28;20186;-86
2021/11/04 11:13:52;;;;;;;20.50;11.33;;;13.60;99.90;;;;;;5072844;28;20210;-86
2021/11/04 11:16:18;;;;;;;21.40;11.63;;;13.50;99.90;;;;;;5074845;28;20680;-84
2021/11/04 11:18:45;;;;;;;22.70;12.60;;;13.50;99.90;;;;;;5051270;28;20183;-86
2021/11/04 11:21:11;;;;;;;19.80;11.90;;;13.30;99.90;;;;;;5071790;28;20244;-87
2021/11/04 11:23:37;;;;;;;20.73;12.43;;;13.40;99.90;;;;;;5073223;28;20191;-84
2021/11/04 11:26:10;;;;;;;24.63;13.10;;;13.20;99.90;;;;;;5072330;28;20190;-86
2021/11/04 11:28:37;;;;;;;24.10;15.77;;;13.10;99.90;;;;;;5072661;28;20760;-86
2021/11/04 11:31:10;;;;;;;31.47;14.70;;;13.10;99.90;;;;;;5055073;28;20191;-85
2021/11/04 11:33:44;;;;;;;24.57;15.37;;;13.20;99.90;;;;;;5071937;28;20179;-86
2021/11/04 11:36:16;;;;;;;20.27;12.70;;;13.20;99.90;;;;;;5055627;28;20183;-85
2021/11/04 11:38:58;;;;;;;23.67;11.97;;;13.20;99.90;;;;;;5056235;28;20234;-87
2021/11/04 11:41:55;;;;;;;22.30;13.23;;;13.20;99.90;;;;;;5088948;28;20205;-85
2021/11/04 11:44:44;;;;;;;22.63;10.77;;;13.40;99.90;;;;;;5071530;28;20454;-86
2021/11/04 11:47:18;;;;;;;24.43;12.80;;;12.90;99.90;;;;;;5070936;28;20214;-85
2021/11/04 11:49:47;;;;;;;21.17;11.07;;;13.00;99.90;;;;;;5071158;28;20179;-86
2021/11/04 11:52:52;;;;;;;22.50;12.27;;;12.90;99.90;;;;;;5071875;28;20224;-86
2021/11/04 11:55:32;;;;;;;21.40;12.83;;;12.90;99.90;;;;;;5054184;28;20179;-86
2021/11/04 11:58:13;;;;;;;22.77;11.40;;;13.00;99.90;;;;;;5071391;28;20194;-87
2021/11/04 12:01:06;;;;;;;22.03;12.77;;;13.00;99.90;;;;;;5052525;28;20186;-87
2021/11/04 12:03:32;;;;;;;20.70;12.40;;;13.00;99.90;;;;;;5059111;28;20179;-87
2021/11/04 12:06:05;;;;;;;21.37;12.20;;;13.00;99.90;;;;;;5054842;28;20213;-87
2021/11/04 12:08:35;;;;;;;19.70;12.90;;;13.00;99.90;;;;;;5060353;28;20310;-86
2021/11/04 12:11:04;;;;;;;21.57;12.07;;;13.00;99.90;;;;;;5054216;28;20197;-87
2021/11/04 12:13:41;;;;;;;20.77;12.80;;;13.00;99.90;;;;;;5055845;28;20167;-86
2021/11/04 12:16:23;;;;;;;21.20;12.70;;;13.00;99.90;;;;;;5055490;28;20175;-88
2021/11/04 12:19:01;;;;;;;22.53;12.47;;;13.10;99.90;;;;;;5055042;28;20175;-88
2021/11/04 12:21:37;;;;;;;20.03;11.93;;;13.20;99.90;;;;;;5072400;28;20206;-87
2021/11/04 12:24:08;;;;;;;18.63;12.07;;;13.30;99.90;;;;;;5088075;28;20249;-86
2021/11/04 12:26:40;;;;;;;19.27;11.07;;;13.40;99.90;;;;;;5071733;28;20194;-87
2021/11/04 12:29:12;;;;;;;19.40;11.50;;;13.40;99.90;;;;;;5054654;28;20707;-87
2021/11/04 12:31:40;;;;;;;19.23;11.47;;;13.40;99.90;;;;;;5062745;28;20198;-86
2021/11/04 12:34:07;;;;;;;18.73;12.63;;;13.40;99.90;;;;;;5071996;28;20178;-87
2021/11/04 12:36:41;;;;;;;18.90;12.57;;;13.50;99.90;;;;;;5063003;28;20199;-87
2021/11/04 12:39:18;;;;;;;20.57;11.60;;;13.60;99.90;;;;;;5071015;28;20268;-87